sensor_id;sensor_type;location;lat;lon;timestamp;pressure;altitude;pressure_sealevel;temperature;humidity
11808;BME280;5961;42.640;23.380;2023-01-25T00:01:45;95081.34;;;3.52;95.67
11808;BME280;5961;42.640;23.380;2023-01-25T00:04:12;95079.78;;;3.51;96.34
11808;BME280;5961;42.640;23.380;2023-01-25T00:06:39;95076.63;;;3.44;96.40
11808;BME280;5961;42.640;23.380;2023-01-25T00:09:05;95037.97;;;3.19;96.12
11808;BME280;5961;42.640;23.380;2023-01-25T00:11:33;95090.81;;;3.48;96.28
11808;BME280;5961;42.640;23.380;2023-01-25T00:14:02;95062.94;;;3.22;96.67
11808;BME280;5961;42.640;23.380;2023-01-25T00:16:29;95106.31;;;3.50;96.55
11808;BME280;5961;42.640;23.380;2023-01-25T00:18:56;95079.78;;;3.56;96.29
11808;BME280;5961;42.640;23.380;2023-01-25T00:21:24;95084.25;;;3.56;97.14
11808;BME280;5961;42.640;23.380;2023-01-25T00:23:51;95080.56;;;3.57;97.28
11808;BME280;5961;42.640;23.380;2023-01-25T00:26:19;95072.41;;;3.43;97.16
11808;BME280;5961;42.640;23.380;2023-01-25T00:28:49;95083.47;;;3.55;97.45
11808;BME280;5961;42.640;23.380;2023-01-25T00:31:24;95071.38;;;3.54;97.09
11808;BME280;5961;42.640;23.380;2023-01-25T00:34:00;95075.31;;;3.57;97.59
11808;BME280;5961;42.640;23.380;2023-01-25T00:36:32;95074.53;;;3.56;97.15
11808;BME280;5961;42.640;23.380;2023-01-25T00:38:59;95077.16;;;3.56;97.45
11808;BME280;5961;42.640;23.380;2023-01-25T00:41:26;95087.66;;;3.61;96.87
11808;BME280;5961;42.640;23.380;2023-01-25T00:43:54;95028.00;;;3.31;97.00
11808;BME280;5961;42.640;23.380;2023-01-25T00:46:21;95076.88;;;3.58;96.47
11808;BME280;5961;42.640;23.380;2023-01-25T00:48:48;95085.81;;;3.67;96.85
11808;BME280;5961;42.640;23.380;2023-01-25T00:51:18;95091.88;;;3.62;96.53
11808;BME280;5961;42.640;23.380;2023-01-25T00:53:44;95095.56;;;3.61;96.12
11808;BME280;5961;42.640;23.380;2023-01-25T00:56:11;95072.44;;;3.53;95.77
11808;BME280;5961;42.640;23.380;2023-01-25T00:58:39;95087.16;;;3.59;96.20
11808;BME280;5961;42.640;23.380;2023-01-25T01:01:07;95085.56;;;3.53;96.04
11808;BME280;5961;42.640;23.380;2023-01-25T01:03:34;95079.53;;;3.53;96.40
11808;BME280;5961;42.640;23.380;2023-01-25T01:06:02;95076.13;;;3.47;95.96
11808;BME280;5961;42.640;23.380;2023-01-25T01:08:32;95086.09;;;3.60;96.78
11808;BME280;5961;42.640;23.380;2023-01-25T01:11:02;95079.78;;;3.56;96.29
11808;BME280;5961;42.640;23.380;2023-01-25T01:13:29;95078.22;;;3.55;95.92
11808;BME280;5961;42.640;23.380;2023-01-25T01:16:00;95083.47;;;3.55;95.29
11808;BME280;5961;42.640;23.380;2023-01-25T01:18:32;95075.56;;;3.40;94.49
11808;BME280;5961;42.640;23.380;2023-01-25T01:21:00;95075.03;;;3.33;94.33
11808;BME280;5961;42.640;23.380;2023-01-25T01:23:27;95047.44;;;3.10;94.25
11808;BME280;5961;42.640;23.380;2023-01-25T01:25:54;95076.63;;;3.34;94.83
11808;BME280;5961;42.640;23.380;2023-01-25T01:28:20;95078.72;;;3.32;95.21
11808;BME280;5961;42.640;23.380;2023-01-25T01:30:47;95068.47;;;3.36;95.89
11808;BME280;5961;42.640;23.380;2023-01-25T01:33:14;95056.63;;;3.28;95.83
11808;BME280;5961;42.640;23.380;2023-01-25T01:35:42;95074.78;;;3.45;95.12
11808;BME280;5961;42.640;23.380;2023-01-25T01:38:11;95064.53;;;3.43;95.44
11808;BME280;5961;42.640;23.380;2023-01-25T01:40:43;95065.59;;;3.47;95.52
11808;BME280;5961;42.640;23.380;2023-01-25T01:43:16;95065.06;;;3.45;95.19
11808;BME280;5961;42.640;23.380;2023-01-25T01:45:53;95051.91;;;3.40;95.28
11808;BME280;5961;42.640;23.380;2023-01-25T01:48:26;95065.06;;;3.50;95.72
11808;BME280;5961;42.640;23.380;2023-01-25T01:51:00;95057.72;;;3.52;95.22
11808;BME280;5961;42.640;23.380;2023-01-25T01:53:29;95060.34;;;3.47;94.80
11808;BME280;5961;42.640;23.380;2023-01-25T01:56:01;95005.16;;;3.17;94.34
11808;BME280;5961;42.640;23.380;2023-01-25T01:58:30;95059.28;;;3.53;94.09
11808;BME280;5961;42.640;23.380;2023-01-25T02:00:57;95064.03;;;3.56;93.51
11808;BME280;5961;42.640;23.380;2023-01-25T02:03:25;95011.72;;;3.19;92.73
11808;BME280;5961;42.640;23.380;2023-01-25T02:05:57;95045.88;;;3.50;93.51
11808;BME280;5961;42.640;23.380;2023-01-25T02:08:27;95061.38;;;3.51;92.61
11808;BME280;5961;42.640;23.380;2023-01-25T02:10:56;95049.84;;;3.47;92.33
11808;BME280;5961;42.640;23.380;2023-01-25T02:13:24;95062.94;;;3.57;92.17
11808;BME280;5961;42.640;23.380;2023-01-25T02:15:51;95058.50;;;3.58;92.07
11808;BME280;5961;42.640;23.380;2023-01-25T02:18:20;95053.00;;;3.59;91.58
11808;BME280;5961;42.640;23.380;2023-01-25T02:20:50;95057.44;;;3.64;91.11
11808;BME280;5961;42.640;23.380;2023-01-25T02:23:23;95036.94;;;3.46;91.56
11808;BME280;5961;42.640;23.380;2023-01-25T02:25:54;95033.53;;;3.40;91.00
11808;BME280;5961;42.640;23.380;2023-01-25T02:28:26;95068.50;;;3.56;91.21
11808;BME280;5961;42.640;23.380;2023-01-25T02:30:53;95050.06;;;3.46;91.37
11808;BME280;5961;42.640;23.380;2023-01-25T02:33:22;95055.59;;;3.44;91.87
11808;BME280;5961;42.640;23.380;2023-01-25T02:35:52;95059.28;;;3.38;92.07
11808;BME280;5961;42.640;23.380;2023-01-25T02:38:20;95048.22;;;3.36;92.71
11808;BME280;5961;42.640;23.380;2023-01-25T02:40:52;95054.53;;;3.40;92.99
11808;BME280;5961;42.640;23.380;2023-01-25T02:43:22;95013.53;;;3.09;92.81
11808;BME280;5961;42.640;23.380;2023-01-25T02:45:58;95051.91;;;3.45;92.63
11808;BME280;5961;42.640;23.380;2023-01-25T02:48:26;95044.56;;;3.47;93.34
11808;BME280;5961;42.640;23.380;2023-01-25T02:50:53;95056.91;;;3.52;92.65
11808;BME280;5961;42.640;23.380;2023-01-25T02:53:20;95051.13;;;3.55;92.94
11808;BME280;5961;42.640;23.380;2023-01-25T02:55:46;95049.81;;;3.57;92.67
11808;BME280;5961;42.640;23.380;2023-01-25T02:58:13;95046.38;;;3.57;92.67
11808;BME280;5961;42.640;23.380;2023-01-25T03:00:41;95037.72;;;3.46;92.41
11808;BME280;5961;42.640;23.380;2023-01-25T03:03:08;95057.16;;;3.60;92.73
11808;BME280;5961;42.640;23.380;2023-01-25T03:05:34;95058.78;;;3.56;93.08
11808;BME280;5961;42.640;23.380;2023-01-25T03:08:01;95056.66;;;3.58;93.56
11808;BME280;5961;42.640;23.380;2023-01-25T03:10:28;95058.25;;;3.59;92.87
11808;BME280;5961;42.640;23.380;2023-01-25T03:12:55;95065.59;;;3.57;92.71
11808;BME280;5961;42.640;23.380;2023-01-25T03:15:21;95060.88;;;3.59;92.85
11808;BME280;5961;42.640;23.380;2023-01-25T03:17:49;95054.03;;;3.53;92.90
11808;BME280;5961;42.640;23.380;2023-01-25T03:20:16;95060.31;;;3.57;92.49
11808;BME280;5961;42.640;23.380;2023-01-25T03:22:43;95054.81;;;3.59;92.91
11808;BME280;5961;42.640;23.380;2023-01-25T03:25:10;95048.78;;;3.53;93.16
11808;BME280;5961;42.640;23.380;2023-01-25T03:30:08;95053.75;;;3.60;93.65
11808;BME280;5961;42.640;23.380;2023-01-25T03:32:35;95048.78;;;3.58;93.10
11808;BME280;5961;42.640;23.380;2023-01-25T03:35:04;95055.06;;;3.67;93.27
11808;BME280;5961;42.640;23.380;2023-01-25T03:37:31;95057.19;;;3.65;91.90
11808;BME280;5961;42.640;23.380;2023-01-25T03:39:58;95060.34;;;3.67;92.49
11808;BME280;5961;42.640;23.380;2023-01-25T03:42:25;95050.34;;;3.64;92.06
11808;BME280;5961;42.640;23.380;2023-01-25T03:44:52;95048.75;;;3.63;91.68
11808;BME280;5961;42.640;23.380;2023-01-25T03:47:19;95033.00;;;3.53;91.96
11808;BME280;5961;42.640;23.380;2023-01-25T03:49:45;95049.81;;;3.57;92.28
11808;BME280;5961;42.640;23.380;2023-01-25T03:52:13;95019.59;;;3.29;92.11
11808;BME280;5961;42.640;23.380;2023-01-25T03:54:40;95030.38;;;3.38;92.27
11808;BME280;5961;42.640;23.380;2023-01-25T03:57:07;95041.41;;;3.40;91.91
11808;BME280;5961;42.640;23.380;2023-01-25T03:59:34;95043.25;;;3.50;92.53
11808;BME280;5961;42.640;23.380;2023-01-25T04:02:01;95039.03;;;3.54;92.03
11808;BME280;5961;42.640;23.380;2023-01-25T04:04:28;95040.63;;;3.55;91.41
11808;BME280;5961;42.640;23.380;2023-01-25T04:06:55;95047.19;;;3.57;91.57
11808;BME280;5961;42.640;23.380;2023-01-25T04:09:23;95037.75;;;3.56;91.76
11808;BME280;5961;42.640;23.380;2023-01-25T04:11:49;95037.47;;;3.53;90.78
11808;BME280;5961;42.640;23.380;2023-01-25T04:14:16;95003.56;;;3.31;91.25
11808;BME280;5961;42.640;23.380;2023-01-25T04:16:43;94946.84;;;2.90;91.01
11808;BME280;5961;42.640;23.380;2023-01-25T04:19:10;95034.31;;;3.46;90.74
11808;BME280;5961;42.640;23.380;2023-01-25T04:21:36;95028.00;;;3.37;90.75
11808;BME280;5961;42.640;23.380;2023-01-25T04:24:04;95030.91;;;3.40;90.70
11808;BME280;5961;42.640;23.380;2023-01-25T04:26:32;95031.44;;;3.32;90.75
11808;BME280;5961;42.640;23.380;2023-01-25T04:28:59;95033.00;;;3.28;90.84
11808;BME280;5961;42.640;23.380;2023-01-25T04:31:25;94991.47;;;2.95;90.74
11808;BME280;5961;42.640;23.380;2023-01-25T04:33:53;95030.63;;;3.21;90.58
11808;BME280;5961;42.640;23.380;2023-01-25T04:36:20;95038.78;;;3.20;91.02
11808;BME280;5961;42.640;23.380;2023-01-25T04:38:47;95042.72;;;3.22;90.75
11808;BME280;5961;42.640;23.380;2023-01-25T04:41:14;95049.28;;;3.25;90.30
11808;BME280;5961;42.640;23.380;2023-01-25T04:43:42;95042.44;;;3.19;89.67
11808;BME280;5961;42.640;23.380;2023-01-25T04:46:09;95056.13;;;3.31;89.79
11808;BME280;5961;42.640;23.380;2023-01-25T04:48:35;95046.66;;;3.35;89.50
11808;BME280;5961;42.640;23.380;2023-01-25T04:51:02;95052.44;;;3.32;88.45
11808;BME280;5961;42.640;23.380;2023-01-25T04:53:29;95040.91;;;3.38;88.60
11808;BME280;5961;42.640;23.380;2023-01-25T04:55:56;95050.63;;;3.38;88.69
11808;BME280;5961;42.640;23.380;2023-01-25T04:58:22;95049.03;;;3.37;88.70
11808;BME280;5961;42.640;23.380;2023-01-25T05:00:51;95054.28;;;3.37;88.58
11808;BME280;5961;42.640;23.380;2023-01-25T05:03:17;95048.22;;;3.36;88.57
11808;BME280;5961;42.640;23.380;2023-01-25T05:05:46;95049.81;;;3.37;88.64
11808;BME280;5961;42.640;23.380;2023-01-25T05:08:13;95051.41;;;3.38;88.86
11808;BME280;5961;42.640;23.380;2023-01-25T05:10:39;95049.28;;;3.40;88.06
11808;BME280;5961;42.640;23.380;2023-01-25T05:13:06;95022.22;;;3.19;87.85
11808;BME280;5961;42.640;23.380;2023-01-25T05:15:33;95040.38;;;3.41;87.77
11808;BME280;5961;42.640;23.380;2023-01-25T05:18:01;95038.78;;;3.40;88.09
11808;BME280;5961;42.640;23.380;2023-01-25T05:20:27;95039.81;;;3.39;87.61
11808;BME280;5961;42.640;23.380;2023-01-25T05:22:54;95028.81;;;3.32;87.84
11808;BME280;5961;42.640;23.380;2023-01-25T05:25:21;95042.97;;;3.36;87.93
11808;BME280;5961;42.640;23.380;2023-01-25T05:28:05;95032.72;;;3.29;88.34
11808;BME280;5961;42.640;23.380;2023-01-25T05:30:32;95038.25;;;3.33;88.42
11808;BME280;5961;42.640;23.380;2023-01-25T05:33:00;95047.69;;;3.39;89.29
11808;BME280;5961;42.640;23.380;2023-01-25T05:35:27;95041.69;;;3.44;88.67
11808;BME280;5961;42.640;23.380;2023-01-25T05:37:55;95042.47;;;3.44;88.81
11808;BME280;5961;42.640;23.380;2023-01-25T05:40:22;95036.16;;;3.45;88.77
11808;BME280;5961;42.640;23.380;2023-01-25T05:42:52;95036.16;;;3.45;88.50
11808;BME280;5961;42.640;23.380;2023-01-25T05:45:19;95046.66;;;3.45;88.24
11808;BME280;5961;42.640;23.380;2023-01-25T05:47:46;95043.78;;;3.47;89.04
11808;BME280;5961;42.640;23.380;2023-01-25T05:50:18;95023.78;;;3.36;88.90
11808;BME280;5961;42.640;23.380;2023-01-25T05:52:45;95045.59;;;3.51;88.69
11808;BME280;5961;42.640;23.380;2023-01-25T05:55:12;95030.88;;;3.45;89.01
11808;BME280;5961;42.640;23.380;2023-01-25T05:57:38;95044.56;;;3.47;88.52
11808;BME280;5961;42.640;23.380;2023-01-25T06:00:07;95045.09;;;3.54;88.85
11808;BME280;5961;42.640;23.380;2023-01-25T06:02:34;95020.66;;;3.28;87.90
11808;BME280;5961;42.640;23.380;2023-01-25T06:05:01;95044.56;;;3.47;87.81
11808;BME280;5961;42.640;23.380;2023-01-25T06:07:32;95040.88;;;3.43;87.21
11808;BME280;5961;42.640;23.380;2023-01-25T06:10:00;95056.38;;;3.40;87.34
11808;BME280;5961;42.640;23.380;2023-01-25T06:12:27;95056.66;;;3.43;87.12
11808;BME280;5961;42.640;23.380;2023-01-25T06:14:53;95045.06;;;3.24;87.50
11808;BME280;5961;42.640;23.380;2023-01-25T06:17:21;95057.16;;;3.20;88.12
11808;BME280;5961;42.640;23.380;2023-01-25T06:19:48;95053.47;;;3.16;88.06
11808;BME280;5961;42.640;23.380;2023-01-25T06:22:14;95010.09;;;2.83;88.67
11808;BME280;5961;42.640;23.380;2023-01-25T06:24:43;95030.56;;;2.91;89.26
11808;BME280;5961;42.640;23.380;2023-01-25T06:27:09;95055.25;;;2.90;89.76
11808;BME280;5961;42.640;23.380;2023-01-25T06:29:37;95055.75;;;2.87;90.20
11808;BME280;5961;42.640;23.380;2023-01-25T06:32:03;95062.34;;;2.95;90.79
11808;BME280;5961;42.640;23.380;2023-01-25T06:34:30;95062.34;;;2.95;91.09
11808;BME280;5961;42.640;23.380;2023-01-25T06:36:57;95004.50;;;2.54;91.11
11808;BME280;5961;42.640;23.380;2023-01-25T06:39:24;95051.81;;;2.85;91.16
11808;BME280;5961;42.640;23.380;2023-01-25T06:41:52;95051.28;;;2.78;92.26
11808;BME280;5961;42.640;23.380;2023-01-25T06:44:19;95044.97;;;2.68;92.74
11808;BME280;5961;42.640;23.380;2023-01-25T06:46:46;95052.56;;;2.65;93.66
11808;BME280;5961;42.640;23.380;2023-01-25T06:49:12;95058.31;;;2.62;93.94
11808;BME280;5961;42.640;23.380;2023-01-25T06:51:39;95037.28;;;2.52;93.47
11808;BME280;5961;42.640;23.380;2023-01-25T06:54:06;95056.47;;;2.57;93.79
11808;BME280;5961;42.640;23.380;2023-01-25T06:56:33;95054.34;;;2.54;93.86
11808;BME280;5961;42.640;23.380;2023-01-25T06:59:01;95051.19;;;2.52;94.16
11808;BME280;5961;42.640;23.380;2023-01-25T07:01:28;95053.81;;;2.52;94.27
11808;BME280;5961;42.640;23.380;2023-01-25T07:03:56;95045.97;;;2.52;94.63
11808;BME280;5961;42.640;23.380;2023-01-25T07:06:24;95035.34;;;2.27;95.33
11808;BME280;5961;42.640;23.380;2023-01-25T07:08:52;95039.06;;;2.31;95.84
11808;BME280;5961;42.640;23.380;2023-01-25T07:11:19;95042.19;;;2.33;96.12
11808;BME280;5961;42.640;23.380;2023-01-25T07:13:46;94998.75;;;1.95;96.18
11808;BME280;5961;42.640;23.380;2023-01-25T07:16:18;95042.19;;;2.28;95.85
11808;BME280;5961;42.640;23.380;2023-01-25T07:18:45;95044.78;;;2.23;96.26
11808;BME280;5961;42.640;23.380;2023-01-25T07:21:13;95048.44;;;2.22;96.61
11808;BME280;5961;42.640;23.380;2023-01-25T07:23:41;95045.25;;;2.15;97.58
11808;BME280;5961;42.640;23.380;2023-01-25T07:26:13;95046.31;;;2.14;97.51
11808;BME280;5961;42.640;23.380;2023-01-25T07:28:41;95058.38;;;2.15;97.76
11808;BME280;5961;42.640;23.380;2023-01-25T07:31:08;95057.59;;;2.14;97.66
11808;BME280;5961;42.640;23.380;2023-01-25T07:33:36;95059.38;;;2.04;98.54
11808;BME280;5961;42.640;23.380;2023-01-25T07:36:05;95053.59;;;2.02;98.46
11808;BME280;5961;42.640;23.380;2023-01-25T07:38:33;95060.19;;;2.09;98.36
11808;BME280;5961;42.640;23.380;2023-01-25T07:41:00;95055.22;;;2.13;98.40
11808;BME280;5961;42.640;23.380;2023-01-25T07:43:28;95059.44;;;2.14;98.92
11808;BME280;5961;42.640;23.380;2023-01-25T07:45:59;95034.94;;;1.93;99.08
11808;BME280;5961;42.640;23.380;2023-01-25T07:48:27;95067.59;;;2.17;99.77
11808;BME280;5961;42.640;23.380;2023-01-25T07:50:58;95052.88;;;2.11;99.69
11808;BME280;5961;42.640;23.380;2023-01-25T07:53:37;95030.53;;;2.04;100.00
11808;BME280;5961;42.640;23.380;2023-01-25T07:56:05;95041.59;;;2.16;100.00
11808;BME280;5961;42.640;23.380;2023-01-25T07:58:32;95057.69;;;2.35;100.00
11808;BME280;5961;42.640;23.380;2023-01-25T08:01:05;95056.09;;;2.34;99.95
11808;BME280;5961;42.640;23.380;2023-01-25T08:03:32;95061.41;;;2.49;100.00
11808;BME280;5961;42.640;23.380;2023-01-25T08:06:00;95065.41;;;2.56;99.72
11808;BME280;5961;42.640;23.380;2023-01-25T08:08:29;95061.19;;;2.60;98.67
11808;BME280;5961;42.640;23.380;2023-01-25T08:10:58;95038.56;;;2.39;98.42
11808;BME280;5961;42.640;23.380;2023-01-25T08:13:25;95050.69;;;2.60;98.70
11808;BME280;5961;42.640;23.380;2023-01-25T08:15:52;95053.88;;;2.62;98.84
11808;BME280;5961;42.640;23.380;2023-01-25T08:18:19;95054.69;;;2.68;98.46
11808;BME280;5961;42.640;23.380;2023-01-25T08:20:46;95048.34;;;2.69;98.61
11808;BME280;5961;42.640;23.380;2023-01-25T08:23:14;95058.91;;;2.74;98.96
11808;BME280;5961;42.640;23.380;2023-01-25T08:25:41;95070.72;;;2.76;99.52
11808;BME280;5961;42.640;23.380;2023-01-25T08:28:08;95019.72;;;2.57;98.68
11808;BME280;5961;42.640;23.380;2023-01-25T08:30:35;95053.94;;;2.88;98.11
11808;BME280;5961;42.640;23.380;2023-01-25T08:33:01;95053.94;;;2.88;97.99
11808;BME280;5961;42.640;23.380;2023-01-25T08:35:28;95055.25;;;2.90;98.50
11808;BME280;5961;42.640;23.380;2023-01-25T08:37:55;95057.91;;;2.95;99.02
11808;BME280;5961;42.640;23.380;2023-01-25T08:40:23;95049.75;;;2.97;98.26
11808;BME280;5961;42.640;23.380;2023-01-25T08:42:50;95048.19;;;3.01;98.79
11808;BME280;5961;42.640;23.380;2023-01-25T08:45:17;95049.50;;;3.08;98.42
11808;BME280;5961;42.640;23.380;2023-01-25T08:47:44;94999.31;;;2.85;98.88
11808;BME280;5961;42.640;23.380;2023-01-25T08:50:10;95030.88;;;3.10;98.16
11808;BME280;5961;42.640;23.380;2023-01-25T08:52:37;95049.28;;;3.20;98.41
11808;BME280;5961;42.640;23.380;2023-01-25T08:55:05;95044.28;;;3.23;97.64
11808;BME280;5961;42.640;23.380;2023-01-25T08:57:33;95003.00;;;2.89;97.72
11808;BME280;5961;42.640;23.380;2023-01-25T09:00:00;94943.91;;;2.61;98.58
11808;BME280;5961;42.640;23.380;2023-01-25T09:02:26;95028.78;;;3.17;98.66
11808;BME280;5961;42.640;23.380;2023-01-25T09:04:53;95053.47;;;3.36;98.49
11808;BME280;5961;42.640;23.380;2023-01-25T09:07:20;95049.81;;;3.37;98.26
11808;BME280;5961;42.640;23.380;2023-01-25T09:09:47;95054.56;;;3.35;98.42
11808;BME280;5961;42.640;23.380;2023-01-25T09:12:13;95047.19;;;3.42;98.29
11808;BME280;5961;42.640;23.380;2023-01-25T09:14:41;95039.56;;;3.41;98.49
11808;BME280;5961;42.640;23.380;2023-01-25T09:17:08;95032.47;;;3.46;98.44
11808;BME280;5961;42.640;23.380;2023-01-25T09:19:35;95030.91;;;3.50;98.44
11808;BME280;5961;42.640;23.380;2023-01-25T09:22:02;95031.97;;;3.44;98.25
11808;BME280;5961;42.640;23.380;2023-01-25T09:24:28;95035.63;;;3.43;98.80
11808;BME280;5961;42.640;23.380;2023-01-25T09:26:55;95031.94;;;3.49;99.08
11808;BME280;5961;42.640;23.380;2023-01-25T09:29:22;95016.44;;;3.43;99.47
11808;BME280;5961;42.640;23.380;2023-01-25T09:31:50;95024.59;;;3.51;99.59
11808;BME280;5961;42.640;23.380;2023-01-25T09:34:17;95029.31;;;3.59;99.07
11808;BME280;5961;42.640;23.380;2023-01-25T09:36:43;95019.34;;;3.56;98.90
11808;BME280;5961;42.640;23.380;2023-01-25T09:39:10;94990.97;;;3.43;97.96
11808;BME280;5961;42.640;23.380;2023-01-25T09:45:19;95001.47;;;3.48;98.69
11808;BME280;5961;42.640;23.380;2023-01-25T09:47:54;95006.72;;;3.53;98.60
11808;BME280;5961;42.640;23.380;2023-01-25T09:50:37;94990.44;;;3.56;98.77
11808;BME280;5961;42.640;23.380;2023-01-25T09:53:22;94972.56;;;3.48;99.36
11808;BME280;5961;42.640;23.380;2023-01-25T09:55:52;94992.50;;;3.64;99.08
11808;BME280;5961;42.640;23.380;2023-01-25T09:58:24;94987.25;;;3.69;99.62
11808;BME280;5961;42.640;23.380;2023-01-25T10:01:02;94987.78;;;3.71;99.56
11808;BME280;5961;42.640;23.380;2023-01-25T10:03:38;94975.41;;;3.77;100.00
11808;BME280;5961;42.640;23.380;2023-01-25T10:06:09;94973.81;;;3.81;99.08
11808;BME280;5961;42.640;23.380;2023-01-25T10:08:43;94935.75;;;3.58;97.53
11808;BME280;5961;42.640;23.380;2023-01-25T10:11:20;94968.00;;;3.84;97.43
11808;BME280;5961;42.640;23.380;2023-01-25T10:13:48;94962.75;;;3.89;97.05
11808;BME280;5961;42.640;23.380;2023-01-25T10:16:19;94949.88;;;3.82;95.12
11808;BME280;5961;42.640;23.380;2023-01-25T10:18:55;94951.97;;;3.96;94.33
11808;BME280;5961;42.640;23.380;2023-01-25T10:21:28;94895.53;;;3.58;94.27
11808;BME280;5961;42.640;23.380;2023-01-25T10:24:25;94940.91;;;3.99;94.07
11808;BME280;5961;42.640;23.380;2023-01-25T10:26:55;94948.50;;;4.00;93.15
11808;BME280;5961;42.640;23.380;2023-01-25T10:29:26;94942.72;;;4.03;92.78
11808;BME280;5961;42.640;23.380;2023-01-25T10:31:54;94944.56;;;4.08;92.48
11808;BME280;5961;42.640;23.380;2023-01-25T10:34:28;94929.28;;;4.10;92.45
11808;BME280;5961;42.640;23.380;2023-01-25T10:36:57;94928.22;;;4.16;91.22
11808;BME280;5961;42.640;23.380;2023-01-25T10:39:28;94919.31;;;4.07;90.44
11808;BME280;5961;42.640;23.380;2023-01-25T10:41:58;94916.13;;;4.10;89.99
11808;BME280;5961;42.640;23.380;2023-01-25T10:44:26;94926.66;;;4.10;89.40
11808;BME280;5961;42.640;23.380;2023-01-25T10:46:59;94899.91;;;3.93;88.84
11808;BME280;5961;42.640;23.380;2023-01-25T10:49:33;94920.06;;;4.12;89.13
11808;BME280;5961;42.640;23.380;2023-01-25T10:52:12;94917.19;;;4.14;89.17
11808;BME280;5961;42.640;23.380;2023-01-25T10:54:39;94912.94;;;4.18;89.40
11808;BME280;5961;42.640;23.380;2023-01-25T10:57:07;94866.72;;;4.02;88.64
11808;BME280;5961;42.640;23.380;2023-01-25T10:59:38;94903.44;;;4.22;87.85
11808;BME280;5961;42.640;23.380;2023-01-25T11:02:34;94900.28;;;4.25;87.51
11808;BME280;5961;42.640;23.380;2023-01-25T11:05:24;94860.63;;;4.06;87.12
11808;BME280;5961;42.640;23.380;2023-01-25T11:07:51;94885.06;;;4.17;86.89
11808;BME280;5961;42.640;23.380;2023-01-25T11:10:29;94890.00;;;4.28;86.70
11808;BME280;5961;42.640;23.380;2023-01-25T11:13:21;94890.25;;;4.27;87.56
11808;BME280;5961;42.640;23.380;2023-01-25T11:15:50;94887.66;;;4.22;86.49
11808;BME280;5961;42.640;23.380;2023-01-25T11:18:20;94880.56;;;4.17;87.09
11808;BME280;5961;42.640;23.380;2023-01-25T11:21:02;94889.78;;;4.20;86.19
11808;BME280;5961;42.640;23.380;2023-01-25T11:23:29;94885.06;;;4.17;86.84
11808;BME280;5961;42.640;23.380;2023-01-25T11:26:10;94871.91;;;4.12;87.65
11808;BME280;5961;42.640;23.380;2023-01-25T11:28:38;94880.34;;;4.14;87.03
11808;BME280;5961;42.640;23.380;2023-01-25T11:31:08;94866.66;;;4.12;87.78
11808;BME280;5961;42.640;23.380;2023-01-25T11:33:37;94872.44;;;4.14;87.87
11808;BME280;5961;42.640;23.380;2023-01-25T11:36:19;94865.59;;;4.13;86.94
11808;BME280;5961;42.640;23.380;2023-01-25T11:39:11;94869.03;;;4.13;87.15
11808;BME280;5961;42.640;23.380;2023-01-25T11:41:54;94861.94;;;4.14;86.63
11808;BME280;5961;42.640;23.380;2023-01-25T11:47:29;94847.69;;;4.15;87.93
11808;BME280;5961;42.640;23.380;2023-01-25T11:50:07;94841.16;;;4.12;87.66
11808;BME280;5961;42.640;23.380;2023-01-25T11:52:52;94833.00;;;4.14;87.00
11808;BME280;5961;42.640;23.380;2023-01-25T11:55:26;94831.41;;;4.13;86.64
11808;BME280;5961;42.640;23.380;2023-01-25T11:58:03;94837.47;;;4.13;87.02
11808;BME280;5961;42.640;23.380;2023-01-25T12:00:55;94821.94;;;4.12;87.21
11808;BME280;5961;42.640;23.380;2023-01-25T12:03:55;94834.00;;;4.18;87.08
11808;BME280;5961;42.640;23.380;2023-01-25T12:06:32;94820.84;;;4.18;87.29
11808;BME280;5961;42.640;23.380;2023-01-25T12:09:36;94831.41;;;4.13;87.17
11808;BME280;5961;42.640;23.380;2023-01-25T12:12:13;94825.09;;;4.14;88.13
11808;BME280;5961;42.640;23.380;2023-01-25T12:14:56;94821.44;;;4.10;86.92
11808;BME280;5961;42.640;23.380;2023-01-25T12:17:37;94819.84;;;4.09;86.96
11808;BME280;5961;42.640;23.380;2023-01-25T12:20:24;94799.94;;;3.98;87.11
11808;BME280;5961;42.640;23.380;2023-01-25T12:23:11;94808.31;;;4.05;87.46
11808;BME280;5961;42.640;23.380;2023-01-25T12:25:53;94818.34;;;3.98;87.42
11808;BME280;5961;42.640;23.380;2023-01-25T12:28:25;94812.13;;;3.78;87.94
11808;BME280;5961;42.640;23.380;2023-01-25T12:30:56;94752.41;;;3.35;88.68
11808;BME280;5961;42.640;23.380;2023-01-25T12:33:28;94802.22;;;3.60;88.59
11808;BME280;5961;42.640;23.380;2023-01-25T12:36:02;94785.47;;;3.46;88.91
11808;BME280;5961;42.640;23.380;2023-01-25T12:38:36;94800.19;;;3.42;90.08
11808;BME280;5961;42.640;23.380;2023-01-25T12:41:17;94802.81;;;3.47;89.84
11808;BME280;5961;42.640;23.380;2023-01-25T12:43:47;94800.69;;;3.49;89.79
11808;BME280;5961;42.640;23.380;2023-01-25T12:46:23;94742.03;;;3.05;89.33
11808;BME280;5961;42.640;23.380;2023-01-25T12:48:54;94791.78;;;3.40;90.39
11808;BME280;5961;42.640;23.380;2023-01-25T12:51:33;94786.00;;;3.43;89.68
11808;BME280;5961;42.640;23.380;2023-01-25T12:54:06;94784.16;;;3.39;88.92
11808;BME280;5961;42.640;23.380;2023-01-25T12:56:41;94790.22;;;3.39;89.60
11808;BME280;5961;42.640;23.380;2023-01-25T12:59:17;94787.06;;;3.37;89.47
11808;BME280;5961;42.640;23.380;2023-01-25T13:01:51;94785.00;;;3.29;90.02
11808;BME280;5961;42.640;23.380;2023-01-25T13:04:35;94780.25;;;3.31;90.23
11808;BME280;5961;42.640;23.380;2023-01-25T13:07:11;94783.97;;;3.25;90.82
11808;BME280;5961;42.640;23.380;2023-01-25T13:09:44;94779.22;;;3.27;90.86
11808;BME280;5961;42.640;23.380;2023-01-25T13:12:18;94759.56;;;3.14;90.70
11808;BME280;5961;42.640;23.380;2023-01-25T13:14:45;94762.16;;;3.24;90.92
11808;BME280;5961;42.640;23.380;2023-01-25T13:17:20;94765.06;;;3.23;90.50
11808;BME280;5961;42.640;23.380;2023-01-25T13:19:48;94612.06;;;2.28;90.68
11808;BME280;5961;42.640;23.380;2023-01-25T13:25:20;94760.34;;;3.20;90.23
11808;BME280;5961;42.640;23.380;2023-01-25T13:27:49;94773.47;;;3.20;89.95
11808;BME280;5961;42.640;23.380;2023-01-25T13:30:28;94762.69;;;3.21;90.04
11808;BME280;5961;42.640;23.380;2023-01-25T13:32:58;94759.28;;;3.26;90.67
11808;BME280;5961;42.640;23.380;2023-01-25T13:35:28;94766.09;;;3.32;90.53
11808;BME280;5961;42.640;23.380;2023-01-25T13:38:23;94766.63;;;3.24;90.18